»·PEaware :: N443BB KTUS-KSMO

N443BB :: KTUS-KSMO

FLIGHT INFORMATION

Flight Status: Arrived
Operator: Privately registered:
United States
More flights under this callsign
Pilot: Brady T. (39665)
Aircraft: EMBRAER PHENOM 300
(E55P)
More flights by this aircraft type
Origin: KTUS Tucson Intl
United States
Destination: KSMO Santa Monica Mun
United States
More flights between these airports :: More routes between these airports
Route: WLDKT3 GBN J104 CULTS HRRBR PHRED THRNE3
File this flight plan on PilotEdge
Remarks: RMK / SIMBRIEF
Altitude:
(Current/Filed)
43,000ft
Speed:
(Current/Filed)
416kts
Departed: 02-Oct-23 05:38 PM
Arrived: 02-Oct-23 06:52 PM
Distance/Time
Traveled:
394nm/1:14
Distance/Time
To Go:
Arrived

Flight Plot

Page will automatically refresh every two minutes.

Flight plan parsing failed; only flown route is shown


Map Options




Map Legend


Flown Route
Filed Route
Departure Airport
Arrival Airport
Navaid (VOR, NDB)
Fix

Horizontal Profiles

Position Reports

Time Latitude Longitude Heading Altitude Ground
Speed
02-Oct-23 17:20 32.124374 -110.944552 223 2578ft 0kts
02-Oct-23 17:21 32.124374 -110.944552 223 2578ft 0kts
02-Oct-23 17:22 32.124374 -110.944552 223 2578ft 0kts
02-Oct-23 17:23 32.124374 -110.944552 223 2578ft 0kts
02-Oct-23 17:24 32.124374 -110.944552 223 2578ft 0kts
02-Oct-23 17:25 32.124374 -110.944552 223 2578ft 0kts
02-Oct-23 17:26 32.124374 -110.944552 223 2578ft 0kts
02-Oct-23 17:27 32.124374 -110.944552 223 2578ft 0kts
02-Oct-23 17:28 32.124374 -110.944552 223 2578ft 0kts
02-Oct-23 17:29 32.124374 -110.944552 223 2578ft 0kts
02-Oct-23 17:30 32.124374 -110.944552 223 2578ft 0kts
02-Oct-23 17:31 32.124374 -110.944552 223 2578ft 0kts
02-Oct-23 17:32 32.122569 -110.944448 135 2582ft 13kts
02-Oct-23 17:34 32.118563 -110.939747 135 2598ft 26kts
02-Oct-23 17:35 32.114377 -110.934850 135 2612ft 25kts
02-Oct-23 17:36 32.108874 -110.928395 135 2630ft 20kts
02-Oct-23 17:37 32.104770 -110.923615 133 2647ft 19kts
02-Oct-23 17:38 32.106494 -110.928102 314 2632ft 101kts
02-Oct-23 17:39 32.136581 -110.963115 311 4964ft 166kts
02-Oct-23 17:40 32.174917 -111.008540 312 7954ft 208kts
02-Oct-23 17:41 32.219149 -111.061228 307 10460ft 266kts
02-Oct-23 17:42 32.236077 -111.146918 276 13865ft 279kts
02-Oct-23 17:43 32.249505 -111.238711 274 16892ft 302kts
02-Oct-23 17:44 32.266110 -111.353590 276 16964ft 383kts
02-Oct-23 17:45 32.290134 -111.475069 300 18316ft 377kts
02-Oct-23 17:46 32.339721 -111.563936 295 22908ft 327kts
02-Oct-23 17:47 32.390460 -111.654315 294 25467ft 333kts
02-Oct-23 17:48 32.441832 -111.745847 293 27870ft 337kts
02-Oct-23 17:49 32.493658 -111.838375 292 30080ft 338kts
02-Oct-23 17:50 32.546085 -111.932121 291 32265ft 334kts
02-Oct-23 17:51 32.595960 -112.021575 291 34540ft 320kts
02-Oct-23 17:52 32.644689 -112.109237 290 36291ft 317kts
02-Oct-23 17:53 32.692951 -112.196243 290 37769ft 316kts
02-Oct-23 17:54 32.741504 -112.283932 290 39048ft 316kts
02-Oct-23 17:55 32.789863 -112.371480 291 40165ft 316kts
02-Oct-23 17:56 32.838031 -112.458867 290 41145ft 316kts
02-Oct-23 17:57 32.886214 -112.546478 290 42001ft 317kts
02-Oct-23 17:58 32.934395 -112.634320 290 42788ft 316kts
02-Oct-23 17:59 32.991666 -112.720974 300 42931ft 349kts
02-Oct-23 17:59 33.047707 -112.795164 301 42929ft 371kts
02-Oct-23 18:00 33.119713 -112.890434 303 42919ft 396kts
02-Oct-23 18:02 33.208713 -113.008426 303 42924ft 419kts
02-Oct-23 18:03 33.286532 -113.112021 303 42931ft 421kts
02-Oct-23 18:03 33.351442 -113.198675 303 42932ft 422kts
02-Oct-23 18:04 33.429593 -113.303291 303 42931ft 421kts
02-Oct-23 18:05 33.507398 -113.407742 303 42931ft 421kts
02-Oct-23 18:06 33.582411 -113.513931 287 42922ft 402kts
02-Oct-23 18:08 33.612325 -113.662322 276 42931ft 393kts
02-Oct-23 18:08 33.632120 -113.768693 276 42931ft 394kts
02-Oct-23 18:09 33.649101 -113.896787 264 42931ft 384kts
02-Oct-23 18:10 33.647355 -114.024793 264 42928ft 384kts
02-Oct-23 18:11 33.649033 -114.152662 270 42927ft 389kts
02-Oct-23 18:12 33.661728 -114.281658 271 42925ft 389kts
02-Oct-23 18:13 33.674462 -114.411197 271 42249ft 399kts
02-Oct-23 18:14 33.686889 -114.538331 270 40502ft 373kts
02-Oct-23 18:15 33.698554 -114.659187 270 38882ft 356kts
02-Oct-23 18:16 33.709567 -114.774434 269 37367ft 343kts
02-Oct-23 18:17 33.720117 -114.886079 269 35881ft 332kts
02-Oct-23 18:18 33.730278 -114.994846 269 34433ft 335kts
02-Oct-23 18:19 33.741373 -115.115584 271 32858ft 400kts
02-Oct-23 18:20 33.755042 -115.254641 272 31028ft 421kts
02-Oct-23 18:21 33.769139 -115.393685 272 29190ft 416kts
02-Oct-23 18:22 33.783019 -115.528021 273 27857ft 403kts
02-Oct-23 18:23 33.796385 -115.661103 272 26094ft 400kts
02-Oct-23 18:24 33.808217 -115.783117 272 24478ft 396kts
02-Oct-23 18:25 33.821768 -115.918721 273 23903ft 438kts
02-Oct-23 18:26 33.835948 -116.059341 273 21911ft 387kts
02-Oct-23 18:27 33.846612 -116.179337 271 20911ft 341kts
02-Oct-23 18:28 33.855265 -116.292790 272 20885ft 376kts
02-Oct-23 18:29 33.865995 -116.418001 274 19335ft 376kts
02-Oct-23 18:30 33.879079 -116.543932 279 16266ft 378kts
02-Oct-23 18:31 33.898276 -116.664918 278 15819ft 374kts
02-Oct-23 18:32 33.918619 -116.793229 279 14762ft 393kts
02-Oct-23 18:33 33.938864 -116.921722 279 14005ft 378kts
02-Oct-23 18:34 33.962268 -117.033732 284 12768ft 338kts
02-Oct-23 18:35 33.988341 -117.142584 284 11010ft 317kts
02-Oct-23 18:36 34.013708 -117.248740 284 11011ft 339kts
02-Oct-23 18:37 34.040225 -117.359963 284 11010ft 349kts
02-Oct-23 18:38 34.066940 -117.471950 284 10021ft 322kts
02-Oct-23 18:39 34.081907 -117.577300 275 10005ft 321kts
02-Oct-23 18:40 34.093700 -117.684805 274 10005ft 324kts
02-Oct-23 18:41 34.105861 -117.796472 274 8270ft 327kts
02-Oct-23 18:42 34.115644 -117.887494 273 6418ft 261kts
02-Oct-23 18:43 34.124374 -117.969801 273 6010ft 242kts
02-Oct-23 18:44 34.133106 -118.055993 273 6007ft 263kts
02-Oct-23 18:45 34.130342 -118.141349 263 4530ft 249kts
02-Oct-23 18:46 34.125647 -118.224120 260 4006ft 242kts
02-Oct-23 18:47 34.096848 -118.298781 242 3014ft 245kts
02-Oct-23 18:48 34.073663 -118.370644 252 3008ft 228kts
02-Oct-23 18:49 34.043250 -118.419739 222 1247ft 145kts
02-Oct-23 18:50 34.018641 -118.447971 225 165ft 102kts
02-Oct-23 18:51 34.013647 -118.454875 337 129ft 0kts
02-Oct-23 18:52 34.014339 -118.454557 134 132ft 0kts

Navigation Log

Ident Type
Flight plan parsing failed, navigation log unavailable